sensor_id;sensor_type;location;lat;lon;timestamp;P1;durP1;ratioP1;P2;durP2;ratioP2
9799;SDS011;4939;52.00085300;4.17406100;2023-03-01T00:01:05;19.48;;;8.07;;
9799;SDS011;4939;52.00085300;4.17406100;2023-03-01T00:03:32;19.15;;;7.47;;
9799;SDS011;4939;52.00085300;4.17406100;2023-03-01T00:05:59;18.02;;;7.72;;
9799;SDS011;4939;52.00085300;4.17406100;2023-03-01T00:08:25;16.92;;;7.38;;
9799;SDS011;4939;52.00085300;4.17406100;2023-03-01T00:11:07;18.70;;;8.10;;
9799;SDS011;4939;52.00085300;4.17406100;2023-03-01T00:13:41;19.38;;;8.13;;
9799;SDS011;4939;52.00085300;4.17406100;2023-03-01T00:16:10;19.23;;;8.40;;
9799;SDS011;4939;52.00085300;4.17406100;2023-03-01T00:18:39;18.70;;;8.27;;
9799;SDS011;4939;52.00085300;4.17406100;2023-03-01T00:21:05;17.92;;;8.75;;
9799;SDS011;4939;52.00085300;4.17406100;2023-03-01T00:23:33;17.88;;;8.30;;
9799;SDS011;4939;52.00085300;4.17406100;2023-03-01T00:25:59;17.70;;;8.30;;
9799;SDS011;4939;52.00085300;4.17406100;2023-03-01T00:28:25;19.00;;;7.82;;
9799;SDS011;4939;52.00085300;4.17406100;2023-03-01T00:30:51;19.55;;;8.60;;
9799;SDS011;4939;52.00085300;4.17406100;2023-03-01T00:33:17;19.17;;;8.15;;
9799;SDS011;4939;52.00085300;4.17406100;2023-03-01T00:35:43;21.17;;;8.98;;
9799;SDS011;4939;52.00085300;4.17406100;2023-03-01T00:38:09;21.25;;;8.63;;
9799;SDS011;4939;52.00085300;4.17406100;2023-03-01T00:40:35;22.20;;;9.15;;
9799;SDS011;4939;52.00085300;4.17406100;2023-03-01T00:43:02;22.95;;;8.82;;
9799;SDS011;4939;52.00085300;4.17406100;2023-03-01T00:45:28;23.92;;;9.20;;
9799;SDS011;4939;52.00085300;4.17406100;2023-03-01T00:47:56;22.65;;;9.38;;
9799;SDS011;4939;52.00085300;4.17406100;2023-03-01T00:50:22;28.48;;;9.75;;
9799;SDS011;4939;52.00085300;4.17406100;2023-03-01T00:52:51;25.30;;;9.82;;
9799;SDS011;4939;52.00085300;4.17406100;2023-03-01T00:55:18;23.35;;;9.73;;
9799;SDS011;4939;52.00085300;4.17406100;2023-03-01T00:57:44;25.90;;;9.95;;
9799;SDS011;4939;52.00085300;4.17406100;2023-03-01T01:00:10;23.08;;;9.07;;
9799;SDS011;4939;52.00085300;4.17406100;2023-03-01T01:02:36;25.13;;;10.43;;
9799;SDS011;4939;52.00085300;4.17406100;2023-03-01T01:05:03;27.90;;;11.07;;
9799;SDS011;4939;52.00085300;4.17406100;2023-03-01T01:07:29;25.88;;;10.20;;
9799;SDS011;4939;52.00085300;4.17406100;2023-03-01T01:09:55;22.50;;;9.60;;
9799;SDS011;4939;52.00085300;4.17406100;2023-03-01T01:12:21;25.55;;;9.73;;
9799;SDS011;4939;52.00085300;4.17406100;2023-03-01T01:14:46;29.58;;;10.68;;
9799;SDS011;4939;52.00085300;4.17406100;2023-03-01T01:17:12;27.90;;;10.80;;
9799;SDS011;4939;52.00085300;4.17406100;2023-03-01T01:19:38;28.15;;;9.93;;
9799;SDS011;4939;52.00085300;4.17406100;2023-03-01T01:22:03;28.38;;;10.80;;
9799;SDS011;4939;52.00085300;4.17406100;2023-03-01T01:24:29;28.98;;;11.35;;
9799;SDS011;4939;52.00085300;4.17406100;2023-03-01T01:26:55;25.92;;;10.10;;
9799;SDS011;4939;52.00085300;4.17406100;2023-03-01T01:29:21;27.63;;;10.52;;
9799;SDS011;4939;52.00085300;4.17406100;2023-03-01T01:31:47;32.00;;;11.25;;
9799;SDS011;4939;52.00085300;4.17406100;2023-03-01T01:34:15;28.63;;;11.27;;
9799;SDS011;4939;52.00085300;4.17406100;2023-03-01T01:36:42;32.85;;;11.52;;
9799;SDS011;4939;52.00085300;4.17406100;2023-03-01T01:39:08;31.33;;;11.27;;
9799;SDS011;4939;52.00085300;4.17406100;2023-03-01T01:41:38;30.85;;;12.45;;
9799;SDS011;4939;52.00085300;4.17406100;2023-03-01T01:44:09;29.52;;;11.02;;
9799;SDS011;4939;52.00085300;4.17406100;2023-03-01T01:46:39;29.02;;;10.98;;
9799;SDS011;4939;52.00085300;4.17406100;2023-03-01T01:49:15;28.73;;;10.65;;
9799;SDS011;4939;52.00085300;4.17406100;2023-03-01T01:52:02;26.92;;;10.63;;
9799;SDS011;4939;52.00085300;4.17406100;2023-03-01T01:55:20;29.77;;;11.32;;
9799;SDS011;4939;52.00085300;4.17406100;2023-03-01T01:57:27;27.98;;;11.07;;
9799;SDS011;4939;52.00085300;4.17406100;2023-03-01T02:00:19;28.30;;;10.57;;
9799;SDS011;4939;52.00085300;4.17406100;2023-03-01T02:02:50;33.08;;;11.50;;
9799;SDS011;4939;52.00085300;4.17406100;2023-03-01T02:08:08;29.27;;;11.23;;
9799;SDS011;4939;52.00085300;4.17406100;2023-03-01T02:10:37;32.75;;;11.32;;
9799;SDS011;4939;52.00085300;4.17406100;2023-03-01T02:13:04;30.75;;;11.40;;
9799;SDS011;4939;52.00085300;4.17406100;2023-03-01T02:15:34;32.92;;;11.52;;
9799;SDS011;4939;52.00085300;4.17406100;2023-03-01T02:18:01;31.67;;;11.48;;
9799;SDS011;4939;52.00085300;4.17406100;2023-03-01T02:23:24;30.73;;;11.20;;
9799;SDS011;4939;52.00085300;4.17406100;2023-03-01T02:26:01;37.03;;;12.02;;
9799;SDS011;4939;52.00085300;4.17406100;2023-03-01T02:28:49;32.15;;;11.57;;
9799;SDS011;4939;52.00085300;4.17406100;2023-03-01T02:31:16;37.90;;;12.85;;
9799;SDS011;4939;52.00085300;4.17406100;2023-03-01T02:34:02;35.60;;;12.25;;
9799;SDS011;4939;52.00085300;4.17406100;2023-03-01T02:36:32;32.13;;;11.57;;
9799;SDS011;4939;52.00085300;4.17406100;2023-03-01T02:39:06;32.03;;;11.73;;
9799;SDS011;4939;52.00085300;4.17406100;2023-03-01T02:41:39;33.03;;;12.10;;
9799;SDS011;4939;52.00085300;4.17406100;2023-03-01T02:44:08;31.40;;;11.93;;
9799;SDS011;4939;52.00085300;4.17406100;2023-03-01T02:46:33;35.38;;;12.00;;
9799;SDS011;4939;52.00085300;4.17406100;2023-03-01T02:49:26;35.83;;;11.73;;
9799;SDS011;4939;52.00085300;4.17406100;2023-03-01T02:57:27;35.15;;;12.43;;
9799;SDS011;4939;52.00085300;4.17406100;2023-03-01T02:59:55;34.10;;;11.52;;
9799;SDS011;4939;52.00085300;4.17406100;2023-03-01T03:02:25;37.17;;;13.00;;
9799;SDS011;4939;52.00085300;4.17406100;2023-03-01T03:05:20;34.25;;;12.82;;
9799;SDS011;4939;52.00085300;4.17406100;2023-03-01T03:07:48;39.97;;;12.68;;
9799;SDS011;4939;52.00085300;4.17406100;2023-03-01T03:10:16;40.60;;;12.55;;
9799;SDS011;4939;52.00085300;4.17406100;2023-03-01T03:12:50;35.08;;;11.93;;
9799;SDS011;4939;52.00085300;4.17406100;2023-03-01T03:15:21;31.88;;;11.32;;
9799;SDS011;4939;52.00085300;4.17406100;2023-03-01T03:17:47;35.25;;;12.20;;
9799;SDS011;4939;52.00085300;4.17406100;2023-03-01T03:20:15;33.45;;;11.75;;
9799;SDS011;4939;52.00085300;4.17406100;2023-03-01T03:22:48;35.38;;;12.20;;
9799;SDS011;4939;52.00085300;4.17406100;2023-03-01T03:25:16;36.28;;;12.00;;
9799;SDS011;4939;52.00085300;4.17406100;2023-03-01T03:27:43;38.53;;;12.07;;
9799;SDS011;4939;52.00085300;4.17406100;2023-03-01T03:30:12;39.70;;;12.07;;
9799;SDS011;4939;52.00085300;4.17406100;2023-03-01T03:32:39;35.15;;;12.77;;
9799;SDS011;4939;52.00085300;4.17406100;2023-03-01T03:35:06;38.13;;;12.80;;
9799;SDS011;4939;52.00085300;4.17406100;2023-03-01T03:37:37;40.50;;;12.65;;
9799;SDS011;4939;52.00085300;4.17406100;2023-03-01T03:40:23;34.80;;;12.38;;
9799;SDS011;4939;52.00085300;4.17406100;2023-03-01T03:42:50;33.45;;;12.60;;
9799;SDS011;4939;52.00085300;4.17406100;2023-03-01T03:45:16;38.55;;;13.35;;
9799;SDS011;4939;52.00085300;4.17406100;2023-03-01T03:47:42;42.00;;;13.40;;
9799;SDS011;4939;52.00085300;4.17406100;2023-03-01T03:50:09;35.90;;;12.30;;
9799;SDS011;4939;52.00085300;4.17406100;2023-03-01T03:52:35;35.95;;;12.65;;
9799;SDS011;4939;52.00085300;4.17406100;2023-03-01T03:55:01;34.20;;;12.38;;
9799;SDS011;4939;52.00085300;4.17406100;2023-03-01T03:57:27;34.97;;;12.40;;
9799;SDS011;4939;52.00085300;4.17406100;2023-03-01T03:59:53;41.20;;;13.93;;
9799;SDS011;4939;52.00085300;4.17406100;2023-03-01T04:02:18;35.88;;;13.02;;
9799;SDS011;4939;52.00085300;4.17406100;2023-03-01T04:04:50;42.22;;;13.73;;
9799;SDS011;4939;52.00085300;4.17406100;2023-03-01T04:07:18;40.25;;;12.90;;
9799;SDS011;4939;52.00085300;4.17406100;2023-03-01T04:09:44;40.20;;;13.13;;
9799;SDS011;4939;52.00085300;4.17406100;2023-03-01T04:12:10;35.72;;;12.77;;
9799;SDS011;4939;52.00085300;4.17406100;2023-03-01T04:14:35;36.72;;;13.50;;
9799;SDS011;4939;52.00085300;4.17406100;2023-03-01T04:17:01;37.15;;;12.82;;
9799;SDS011;4939;52.00085300;4.17406100;2023-03-01T04:19:31;38.30;;;12.90;;
9799;SDS011;4939;52.00085300;4.17406100;2023-03-01T04:22:04;36.53;;;13.27;;
9799;SDS011;4939;52.00085300;4.17406100;2023-03-01T04:24:34;42.20;;;13.55;;
9799;SDS011;4939;52.00085300;4.17406100;2023-03-01T04:27:00;40.40;;;13.80;;
9799;SDS011;4939;52.00085300;4.17406100;2023-03-01T04:29:26;42.95;;;14.18;;
9799;SDS011;4939;52.00085300;4.17406100;2023-03-01T04:31:52;40.03;;;14.20;;
9799;SDS011;4939;52.00085300;4.17406100;2023-03-01T04:34:18;39.05;;;14.07;;
9799;SDS011;4939;52.00085300;4.17406100;2023-03-01T04:36:44;43.97;;;14.88;;
9799;SDS011;4939;52.00085300;4.17406100;2023-03-01T04:39:09;45.83;;;14.75;;
9799;SDS011;4939;52.00085300;4.17406100;2023-03-01T04:41:37;44.72;;;14.90;;
9799;SDS011;4939;52.00085300;4.17406100;2023-03-01T04:44:04;48.17;;;15.52;;
9799;SDS011;4939;52.00085300;4.17406100;2023-03-01T04:46:30;49.40;;;14.73;;
9799;SDS011;4939;52.00085300;4.17406100;2023-03-01T04:48:56;48.03;;;15.30;;
9799;SDS011;4939;52.00085300;4.17406100;2023-03-01T04:51:22;50.13;;;16.25;;
9799;SDS011;4939;52.00085300;4.17406100;2023-03-01T04:53:47;53.00;;;16.98;;
9799;SDS011;4939;52.00085300;4.17406100;2023-03-01T04:56:13;53.25;;;17.33;;
9799;SDS011;4939;52.00085300;4.17406100;2023-03-01T04:58:40;55.63;;;17.05;;
9799;SDS011;4939;52.00085300;4.17406100;2023-03-01T05:01:10;62.65;;;19.65;;
9799;SDS011;4939;52.00085300;4.17406100;2023-03-01T05:03:40;59.25;;;19.38;;
9799;SDS011;4939;52.00085300;4.17406100;2023-03-01T05:06:09;65.85;;;20.08;;
9799;SDS011;4939;52.00085300;4.17406100;2023-03-01T05:08:36;68.43;;;20.63;;
9799;SDS011;4939;52.00085300;4.17406100;2023-03-01T05:11:06;65.90;;;20.83;;
9799;SDS011;4939;52.00085300;4.17406100;2023-03-01T05:13:35;67.65;;;19.45;;
9799;SDS011;4939;52.00085300;4.17406100;2023-03-01T05:16:02;67.18;;;19.98;;
9799;SDS011;4939;52.00085300;4.17406100;2023-03-01T05:18:29;75.28;;;20.55;;
9799;SDS011;4939;52.00085300;4.17406100;2023-03-01T05:21:02;64.47;;;20.08;;
9799;SDS011;4939;52.00085300;4.17406100;2023-03-01T05:23:30;67.93;;;21.85;;
9799;SDS011;4939;52.00085300;4.17406100;2023-03-01T05:25:57;66.05;;;20.35;;
9799;SDS011;4939;52.00085300;4.17406100;2023-03-01T05:28:24;70.15;;;21.60;;
9799;SDS011;4939;52.00085300;4.17406100;2023-03-01T05:30:51;69.88;;;21.05;;
9799;SDS011;4939;52.00085300;4.17406100;2023-03-01T05:33:17;66.15;;;20.27;;
9799;SDS011;4939;52.00085300;4.17406100;2023-03-01T05:35:44;64.85;;;20.00;;
9799;SDS011;4939;52.00085300;4.17406100;2023-03-01T05:38:11;72.72;;;21.73;;
9799;SDS011;4939;52.00085300;4.17406100;2023-03-01T05:40:41;69.25;;;20.00;;
9799;SDS011;4939;52.00085300;4.17406100;2023-03-01T05:43:08;66.85;;;20.00;;
9799;SDS011;4939;52.00085300;4.17406100;2023-03-01T05:45:35;71.72;;;21.73;;
9799;SDS011;4939;52.00085300;4.17406100;2023-03-01T05:48:02;67.45;;;20.75;;
9799;SDS011;4939;52.00085300;4.17406100;2023-03-01T05:50:31;72.70;;;22.33;;
9799;SDS011;4939;52.00085300;4.17406100;2023-03-01T05:53:03;63.58;;;19.20;;
9799;SDS011;4939;52.00085300;4.17406100;2023-03-01T05:55:33;58.47;;;18.88;;
9799;SDS011;4939;52.00085300;4.17406100;2023-03-01T05:58:00;58.75;;;20.17;;
9799;SDS011;4939;52.00085300;4.17406100;2023-03-01T06:00:28;60.70;;;18.73;;
9799;SDS011;4939;52.00085300;4.17406100;2023-03-01T06:02:55;58.42;;;19.40;;
9799;SDS011;4939;52.00085300;4.17406100;2023-03-01T06:05:22;57.28;;;19.25;;
9799;SDS011;4939;52.00085300;4.17406100;2023-03-01T06:07:48;61.10;;;19.73;;
9799;SDS011;4939;52.00085300;4.17406100;2023-03-01T06:10:15;61.33;;;19.40;;
9799;SDS011;4939;52.00085300;4.17406100;2023-03-01T06:12:42;71.25;;;20.70;;
9799;SDS011;4939;52.00085300;4.17406100;2023-03-01T06:15:09;54.65;;;18.38;;
9799;SDS011;4939;52.00085300;4.17406100;2023-03-01T06:17:40;59.30;;;19.25;;
9799;SDS011;4939;52.00085300;4.17406100;2023-03-01T06:20:08;62.28;;;20.02;;
9799;SDS011;4939;52.00085300;4.17406100;2023-03-01T06:22:34;64.82;;;19.23;;
9799;SDS011;4939;52.00085300;4.17406100;2023-03-01T06:25:00;55.70;;;19.25;;
9799;SDS011;4939;52.00085300;4.17406100;2023-03-01T06:27:26;57.58;;;19.05;;
9799;SDS011;4939;52.00085300;4.17406100;2023-03-01T06:29:52;62.63;;;18.73;;
9799;SDS011;4939;52.00085300;4.17406100;2023-03-01T06:32:17;53.75;;;18.15;;
9799;SDS011;4939;52.00085300;4.17406100;2023-03-01T06:34:43;58.92;;;18.48;;
9799;SDS011;4939;52.00085300;4.17406100;2023-03-01T06:37:09;52.33;;;17.27;;
9799;SDS011;4939;52.00085300;4.17406100;2023-03-01T06:39:35;53.75;;;18.25;;
9799;SDS011;4939;52.00085300;4.17406100;2023-03-01T06:42:00;58.60;;;18.30;;
9799;SDS011;4939;52.00085300;4.17406100;2023-03-01T06:44:26;55.13;;;18.23;;
9799;SDS011;4939;52.00085300;4.17406100;2023-03-01T06:46:52;48.88;;;17.58;;
9799;SDS011;4939;52.00085300;4.17406100;2023-03-01T06:49:17;49.88;;;16.92;;
9799;SDS011;4939;52.00085300;4.17406100;2023-03-01T06:51:45;47.15;;;17.05;;
9799;SDS011;4939;52.00085300;4.17406100;2023-03-01T06:54:11;47.90;;;16.63;;
9799;SDS011;4939;52.00085300;4.17406100;2023-03-01T06:56:37;52.35;;;16.27;;
9799;SDS011;4939;52.00085300;4.17406100;2023-03-01T06:59:03;53.45;;;17.25;;
9799;SDS011;4939;52.00085300;4.17406100;2023-03-01T07:01:29;52.80;;;18.05;;
9799;SDS011;4939;52.00085300;4.17406100;2023-03-01T07:03:55;51.22;;;16.88;;
9799;SDS011;4939;52.00085300;4.17406100;2023-03-01T07:06:22;53.05;;;18.23;;
9799;SDS011;4939;52.00085300;4.17406100;2023-03-01T07:08:48;47.88;;;17.88;;
9799;SDS011;4939;52.00085300;4.17406100;2023-03-01T07:11:14;53.28;;;17.10;;
9799;SDS011;4939;52.00085300;4.17406100;2023-03-01T07:13:40;50.95;;;17.20;;
9799;SDS011;4939;52.00085300;4.17406100;2023-03-01T07:16:06;50.38;;;17.52;;
9799;SDS011;4939;52.00085300;4.17406100;2023-03-01T07:18:32;50.55;;;16.85;;
9799;SDS011;4939;52.00085300;4.17406100;2023-03-01T07:20:57;55.30;;;17.95;;
9799;SDS011;4939;52.00085300;4.17406100;2023-03-01T07:23:23;49.30;;;17.17;;
9799;SDS011;4939;52.00085300;4.17406100;2023-03-01T07:25:52;58.20;;;18.08;;
9799;SDS011;4939;52.00085300;4.17406100;2023-03-01T07:28:20;53.97;;;18.25;;
9799;SDS011;4939;52.00085300;4.17406100;2023-03-01T07:30:47;54.10;;;18.00;;
9799;SDS011;4939;52.00085300;4.17406100;2023-03-01T07:33:13;54.33;;;17.42;;
9799;SDS011;4939;52.00085300;4.17406100;2023-03-01T07:35:38;49.13;;;16.52;;
9799;SDS011;4939;52.00085300;4.17406100;2023-03-01T07:38:04;50.85;;;16.20;;
9799;SDS011;4939;52.00085300;4.17406100;2023-03-01T07:40:30;45.70;;;16.85;;
9799;SDS011;4939;52.00085300;4.17406100;2023-03-01T07:42:56;45.75;;;17.00;;
9799;SDS011;4939;52.00085300;4.17406100;2023-03-01T07:45:22;46.13;;;16.92;;
9799;SDS011;4939;52.00085300;4.17406100;2023-03-01T07:47:49;47.38;;;17.55;;
9799;SDS011;4939;52.00085300;4.17406100;2023-03-01T07:50:16;41.67;;;14.90;;
9799;SDS011;4939;52.00085300;4.17406100;2023-03-01T07:52:42;37.67;;;14.75;;
9799;SDS011;4939;52.00085300;4.17406100;2023-03-01T07:55:10;36.65;;;14.07;;
9799;SDS011;4939;52.00085300;4.17406100;2023-03-01T07:57:37;34.30;;;12.50;;
9799;SDS011;4939;52.00085300;4.17406100;2023-03-01T08:00:03;29.52;;;11.38;;
9799;SDS011;4939;52.00085300;4.17406100;2023-03-01T08:02:30;31.15;;;10.98;;
9799;SDS011;4939;52.00085300;4.17406100;2023-03-01T08:04:56;24.10;;;9.40;;
9799;SDS011;4939;52.00085300;4.17406100;2023-03-01T08:07:21;19.70;;;8.00;;
9799;SDS011;4939;52.00085300;4.17406100;2023-03-01T08:09:47;18.23;;;8.10;;
9799;SDS011;4939;52.00085300;4.17406100;2023-03-01T08:12:13;17.58;;;6.88;;
9799;SDS011;4939;52.00085300;4.17406100;2023-03-01T08:14:38;14.57;;;6.22;;
9799;SDS011;4939;52.00085300;4.17406100;2023-03-01T08:17:04;13.68;;;5.47;;
9799;SDS011;4939;52.00085300;4.17406100;2023-03-01T08:19:30;11.88;;;5.28;;
9799;SDS011;4939;52.00085300;4.17406100;2023-03-01T08:21:56;11.25;;;5.50;;
9799;SDS011;4939;52.00085300;4.17406100;2023-03-01T08:24:23;11.90;;;5.40;;
9799;SDS011;4939;52.00085300;4.17406100;2023-03-01T08:26:49;11.65;;;5.35;;
9799;SDS011;4939;52.00085300;4.17406100;2023-03-01T08:29:15;9.45;;;4.93;;
9799;SDS011;4939;52.00085300;4.17406100;2023-03-01T08:31:40;15.38;;;5.93;;
9799;SDS011;4939;52.00085300;4.17406100;2023-03-01T08:34:10;14.35;;;5.85;;
9799;SDS011;4939;52.00085300;4.17406100;2023-03-01T08:36:42;14.38;;;6.30;;
9799;SDS011;4939;52.00085300;4.17406100;2023-03-01T08:39:10;16.30;;;6.80;;
9799;SDS011;4939;52.00085300;4.17406100;2023-03-01T08:41:37;12.65;;;6.10;;
9799;SDS011;4939;52.00085300;4.17406100;2023-03-01T08:44:03;14.07;;;6.18;;
9799;SDS011;4939;52.00085300;4.17406100;2023-03-01T08:46:31;15.20;;;7.05;;
9799;SDS011;4939;52.00085300;4.17406100;2023-03-01T08:48:58;16.67;;;7.75;;
9799;SDS011;4939;52.00085300;4.17406100;2023-03-01T08:51:24;16.50;;;8.23;;
9799;SDS011;4939;52.00085300;4.17406100;2023-03-01T08:53:50;15.98;;;7.32;;
9799;SDS011;4939;52.00085300;4.17406100;2023-03-01T08:56:17;16.10;;;7.93;;
9799;SDS011;4939;52.00085300;4.17406100;2023-03-01T08:58:44;17.20;;;8.25;;
9799;SDS011;4939;52.00085300;4.17406100;2023-03-01T09:01:11;21.33;;;8.70;;
9799;SDS011;4939;52.00085300;4.17406100;2023-03-01T09:03:39;22.15;;;9.82;;
9799;SDS011;4939;52.00085300;4.17406100;2023-03-01T09:06:05;22.02;;;10.57;;
9799;SDS011;4939;52.00085300;4.17406100;2023-03-01T09:08:36;22.20;;;9.80;;
9799;SDS011;4939;52.00085300;4.17406100;2023-03-01T09:11:03;26.52;;;10.35;;
9799;SDS011;4939;52.00085300;4.17406100;2023-03-01T09:13:30;22.90;;;10.75;;
9799;SDS011;4939;52.00085300;4.17406100;2023-03-01T09:15:57;22.65;;;10.10;;
9799;SDS011;4939;52.00085300;4.17406100;2023-03-01T09:18:23;25.00;;;11.68;;
9799;SDS011;4939;52.00085300;4.17406100;2023-03-01T09:20:49;27.75;;;11.70;;
9799;SDS011;4939;52.00085300;4.17406100;2023-03-01T09:23:15;26.90;;;11.80;;
9799;SDS011;4939;52.00085300;4.17406100;2023-03-01T09:25:40;27.65;;;11.93;;
9799;SDS011;4939;52.00085300;4.17406100;2023-03-01T09:28:06;29.38;;;13.07;;
9799;SDS011;4939;52.00085300;4.17406100;2023-03-01T09:30:32;26.58;;;11.75;;
9799;SDS011;4939;52.00085300;4.17406100;2023-03-01T09:32:57;26.15;;;11.02;;
9799;SDS011;4939;52.00085300;4.17406100;2023-03-01T09:35:23;23.52;;;10.68;;
9799;SDS011;4939;52.00085300;4.17406100;2023-03-01T09:37:49;21.92;;;9.55;;
9799;SDS011;4939;52.00085300;4.17406100;2023-03-01T09:40:21;19.98;;;9.75;;
9799;SDS011;4939;52.00085300;4.17406100;2023-03-01T09:42:52;19.40;;;8.88;;
9799;SDS011;4939;52.00085300;4.17406100;2023-03-01T09:45:23;20.83;;;9.45;;
9799;SDS011;4939;52.00085300;4.17406100;2023-03-01T09:47:54;21.35;;;9.85;;
9799;SDS011;4939;52.00085300;4.17406100;2023-03-01T09:50:21;19.42;;;8.82;;
9799;SDS011;4939;52.00085300;4.17406100;2023-03-01T09:53:07;21.00;;;10.13;;
9799;SDS011;4939;52.00085300;4.17406100;2023-03-01T09:55:38;21.50;;;12.70;;
9799;SDS011;4939;52.00085300;4.17406100;2023-03-01T10:00:52;18.35;;;11.52;;
9799;SDS011;4939;52.00085300;4.17406100;2023-03-01T10:03:24;17.02;;;9.35;;
9799;SDS011;4939;52.00085300;4.17406100;2023-03-01T10:06:03;17.63;;;9.27;;
9799;SDS011;4939;52.00085300;4.17406100;2023-03-01T10:08:37;19.05;;;8.55;;
9799;SDS011;4939;52.00085300;4.17406100;2023-03-01T10:11:41;13.80;;;8.18;;
9799;SDS011;4939;52.00085300;4.17406100;2023-03-01T10:14:24;15.13;;;7.82;;
9799;SDS011;4939;52.00085300;4.17406100;2023-03-01T10:19:57;12.30;;;6.93;;
9799;SDS011;4939;52.00085300;4.17406100;2023-03-01T10:22:43;13.57;;;7.20;;
9799;SDS011;4939;52.00085300;4.17406100;2023-03-01T10:25:14;14.77;;;7.10;;
9799;SDS011;4939;52.00085300;4.17406100;2023-03-01T10:27:49;11.27;;;6.20;;
9799;SDS011;4939;52.00085300;4.17406100;2023-03-01T10:30:36;11.10;;;5.35;;
9799;SDS011;4939;52.00085300;4.17406100;2023-03-01T10:35:49;8.85;;;4.78;;
9799;SDS011;4939;52.00085300;4.17406100;2023-03-01T10:38:16;7.35;;;4.25;;
9799;SDS011;4939;52.00085300;4.17406100;2023-03-01T10:43:25;9.38;;;4.70;;
9799;SDS011;4939;52.00085300;4.17406100;2023-03-01T10:45:55;8.60;;;4.75;;
9799;SDS011;4939;52.00085300;4.17406100;2023-03-01T10:48:21;8.43;;;4.53;;
9799;SDS011;4939;52.00085300;4.17406100;2023-03-01T10:53:26;8.93;;;5.03;;
9799;SDS011;4939;52.00085300;4.17406100;2023-03-01T10:58:28;12.27;;;6.38;;
9799;SDS011;4939;52.00085300;4.17406100;2023-03-01T11:00:56;10.88;;;5.82;;
9799;SDS011;4939;52.00085300;4.17406100;2023-03-01T11:03:25;10.10;;;6.45;;
9799;SDS011;4939;52.00085300;4.17406100;2023-03-01T11:05:57;11.15;;;5.95;;
9799;SDS011;4939;52.00085300;4.17406100;2023-03-01T11:08:34;10.98;;;6.07;;
9799;SDS011;4939;52.00085300;4.17406100;2023-03-01T11:13:52;13.68;;;6.05;;
9799;SDS011;4939;52.00085300;4.17406100;2023-03-01T11:16:38;13.02;;;6.50;;
9799;SDS011;4939;52.00085300;4.17406100;2023-03-01T11:21:42;13.20;;;5.97;;
9799;SDS011;4939;52.00085300;4.17406100;2023-03-01T11:24:33;12.25;;;6.70;;
9799;SDS011;4939;52.00085300;4.17406100;2023-03-01T11:27:03;11.25;;;6.28;;
9799;SDS011;4939;52.00085300;4.17406100;2023-03-01T11:29:38;12.15;;;6.30;;
9799;SDS011;4939;52.00085300;4.17406100;2023-03-01T11:32:19;10.73;;;5.82;;
9799;SDS011;4939;52.00085300;4.17406100;2023-03-01T11:40:27;12.32;;;5.78;;
9799;SDS011;4939;52.00085300;4.17406100;2023-03-01T11:51:24;12.80;;;5.85;;
9799;SDS011;4939;52.00085300;4.17406100;2023-03-01T11:54:09;11.63;;;5.45;;
9799;SDS011;4939;52.00085300;4.17406100;2023-03-01T11:59:40;13.57;;;6.32;;
9799;SDS011;4939;52.00085300;4.17406100;2023-03-01T12:10:38;13.93;;;6.32;;
9799;SDS011;4939;52.00085300;4.17406100;2023-03-01T12:13:21;16.63;;;6.78;;
9799;SDS011;4939;52.00085300;4.17406100;2023-03-01T12:31:07;15.35;;;7.22;;
9799;SDS011;4939;52.00085300;4.17406100;2023-03-01T12:33:54;14.55;;;6.70;;
9799;SDS011;4939;52.00085300;4.17406100;2023-03-01T12:45:05;14.80;;;6.72;;
9799;SDS011;4939;52.00085300;4.17406100;2023-03-01T12:55:51;16.05;;;7.57;;
9799;SDS011;4939;52.00085300;4.17406100;2023-03-01T12:58:22;18.05;;;7.93;;
9799;SDS011;4939;52.00085300;4.17406100;2023-03-01T13:11:28;16.17;;;7.63;;
9799;SDS011;4939;52.00085300;4.17406100;2023-03-01T13:16:48;14.13;;;7.13;;
9799;SDS011;4939;52.00085300;4.17406100;2023-03-01T13:19:15;18.15;;;8.63;;
9799;SDS011;4939;52.00085300;4.17406100;2023-03-01T13:21:46;17.20;;;7.05;;
9799;SDS011;4939;52.00085300;4.17406100;2023-03-01T13:24:27;15.98;;;7.63;;
9799;SDS011;4939;52.00085300;4.17406100;2023-03-01T13:32:21;18.08;;;7.93;;
9799;SDS011;4939;52.00085300;4.17406100;2023-03-01T13:34:53;17.17;;;7.70;;
9799;SDS011;4939;52.00085300;4.17406100;2023-03-01T13:37:33;20.10;;;8.55;;
9799;SDS011;4939;52.00085300;4.17406100;2023-03-01T13:40:03;18.52;;;7.90;;
9799;SDS011;4939;52.00085300;4.17406100;2023-03-01T13:42:50;20.77;;;8.43;;
9799;SDS011;4939;52.00085300;4.17406100;2023-03-01T13:45:19;18.77;;;8.18;;
9799;SDS011;4939;52.00085300;4.17406100;2023-03-01T13:50:23;17.65;;;7.57;;
9799;SDS011;4939;52.00085300;4.17406100;2023-03-01T13:53:00;21.33;;;8.90;;
9799;SDS011;4939;52.00085300;4.17406100;2023-03-01T13:55:36;18.75;;;8.40;;
9799;SDS011;4939;52.00085300;4.17406100;2023-03-01T13:58:14;19.67;;;8.55;;
9799;SDS011;4939;52.00085300;4.17406100;2023-03-01T14:00:40;18.67;;;8.07;;
9799;SDS011;4939;52.00085300;4.17406100;2023-03-01T14:03:10;16.85;;;7.90;;
9799;SDS011;4939;52.00085300;4.17406100;2023-03-01T14:05:42;17.38;;;7.85;;
9799;SDS011;4939;52.00085300;4.17406100;2023-03-01T14:08:29;16.73;;;7.75;;
9799;SDS011;4939;52.00085300;4.17406100;2023-03-01T14:16:52;15.02;;;6.90;;
9799;SDS011;4939;52.00085300;4.17406100;2023-03-01T14:19:33;17.67;;;6.90;;
9799;SDS011;4939;52.00085300;4.17406100;2023-03-01T14:21:59;14.95;;;7.10;;
9799;SDS011;4939;52.00085300;4.17406100;2023-03-01T14:24:46;14.20;;;6.63;;
9799;SDS011;4939;52.00085300;4.17406100;2023-03-01T14:27:14;15.82;;;7.25;;
9799;SDS011;4939;52.00085300;4.17406100;2023-03-01T14:29:41;16.27;;;7.28;;
9799;SDS011;4939;52.00085300;4.17406100;2023-03-01T14:32:11;14.52;;;6.35;;
9799;SDS011;4939;52.00085300;4.17406100;2023-03-01T14:34:44;13.23;;;6.07;;
9799;SDS011;4939;52.00085300;4.17406100;2023-03-01T14:37:11;14.85;;;6.15;;
9799;SDS011;4939;52.00085300;4.17406100;2023-03-01T14:39:48;15.07;;;6.40;;
9799;SDS011;4939;52.00085300;4.17406100;2023-03-01T14:42:15;16.10;;;6.88;;
9799;SDS011;4939;52.00085300;4.17406100;2023-03-01T14:44:42;14.43;;;6.70;;
9799;SDS011;4939;52.00085300;4.17406100;2023-03-01T14:47:11;14.45;;;6.45;;
9799;SDS011;4939;52.00085300;4.17406100;2023-03-01T14:49:40;11.40;;;6.05;;
9799;SDS011;4939;52.00085300;4.17406100;2023-03-01T14:52:07;14.07;;;6.45;;
9799;SDS011;4939;52.00085300;4.17406100;2023-03-01T14:54:46;15.13;;;6.95;;
9799;SDS011;4939;52.00085300;4.17406100;2023-03-01T14:57:23;11.13;;;6.05;;
9799;SDS011;4939;52.00085300;4.17406100;2023-03-01T14:59:51;13.23;;;6.05;;
9799;SDS011;4939;52.00085300;4.17406100;2023-03-01T15:02:20;15.02;;;6.30;;
9799;SDS011;4939;52.00085300;4.17406100;2023-03-01T15:04:49;13.23;;;6.68;;